createdAt,value
2023-04-22T00:01:28.982Z,11.23
2023-04-22T00:03:59.052Z,17.75
2023-04-22T00:06:26.955Z,11.35
2023-04-22T00:08:54.568Z,15.10
2023-04-22T00:11:22.548Z,13.32
2023-04-22T00:13:50.294Z,15.73
2023-04-22T00:16:17.948Z,13.90
2023-04-22T00:18:45.618Z,19.25
2023-04-22T00:21:14.643Z,14.15
2023-04-22T00:23:45.327Z,19.40
2023-04-22T00:26:13.050Z,11.70
2023-04-22T00:28:40.969Z,19.90
2023-04-22T00:31:08.626Z,12.68
2023-04-22T00:33:53.131Z,11.43
2023-04-22T00:36:22.170Z,13.30
2023-04-22T00:38:51.082Z,12.88
2023-04-22T00:41:18.929Z,12.40
2023-04-22T00:43:46.696Z,15.23
2023-04-22T00:46:15.518Z,11.60
2023-04-22T00:48:43.174Z,14.20
2023-04-22T00:51:10.795Z,11.98
2023-04-22T00:53:39.810Z,10.13
2023-04-22T00:56:08.559Z,9.60
2023-04-22T00:58:39.585Z,21.85
2023-04-22T01:01:07.278Z,26.52
2023-04-22T01:03:41.775Z,15.40
2023-04-22T01:06:09.605Z,24.00
2023-04-22T01:08:37.494Z,17.60
2023-04-22T01:11:06.590Z,12.90
2023-04-22T01:13:38.189Z,13.60
2023-04-22T01:16:08.332Z,18.55
2023-04-22T01:18:36.765Z,16.30
2023-04-22T01:21:04.568Z,16.13
2023-04-22T01:23:39.597Z,21.75
2023-04-22T01:26:07.347Z,19.23
2023-04-22T01:28:39.976Z,29.27
2023-04-22T01:31:07.828Z,22.63
2023-04-22T01:33:40.250Z,11.75
2023-04-22T01:36:13.143Z,11.65
2023-04-22T01:38:42.375Z,12.23
2023-04-22T01:41:10.205Z,14.38
2023-04-22T01:43:57.823Z,14.73
2023-04-22T01:46:25.572Z,14.65
2023-04-22T01:48:53.270Z,16.85
2023-04-22T01:51:21.468Z,17.60
2023-04-22T01:53:51.170Z,18.60
2023-04-22T01:56:18.925Z,24.70
2023-04-22T01:58:46.539Z,21.35
2023-04-22T02:01:16.098Z,21.83
2023-04-22T02:03:59.886Z,20.10
2023-04-22T02:06:28.535Z,13.50
2023-04-22T02:08:57.534Z,12.88
2023-04-22T02:11:25.186Z,14.23
2023-04-22T02:13:57.741Z,12.23
2023-04-22T02:16:25.472Z,9.65
2023-04-22T02:18:53.219Z,11.93
2023-04-22T02:21:21.072Z,11.05
2023-04-22T02:23:48.763Z,12.15
2023-04-22T02:26:17.775Z,10.75
2023-04-22T02:28:46.263Z,11.32
2023-04-22T02:31:13.938Z,10.25
2023-04-22T02:33:59.758Z,12.70
2023-04-22T02:38:55.445Z,10.50
2023-04-22T02:41:24.659Z,11.27
2023-04-22T02:44:00.418Z,10.43
2023-04-22T02:46:28.152Z,12.35
2023-04-22T02:48:55.815Z,13.02
2023-04-22T02:51:23.957Z,11.70
2023-04-22T02:53:51.628Z,12.13
2023-04-22T02:56:19.255Z,11.95
2023-04-22T02:58:48.350Z,12.75
2023-04-22T03:01:16.144Z,12.40
2023-04-22T03:03:45.807Z,12.57
2023-04-22T03:06:13.563Z,12.85
2023-04-22T03:08:43.393Z,14.50
2023-04-22T03:11:11.405Z,16.77
2023-04-22T03:13:41.384Z,16.02
2023-04-22T03:16:10.437Z,15.73
2023-04-22T03:18:38.090Z,16.77
2023-04-22T03:21:06.545Z,16.48
2023-04-22T03:23:34.803Z,14.32
2023-04-22T03:26:02.466Z,20.02
2023-04-22T03:28:30.091Z,15.82
2023-04-22T03:30:57.771Z,15.20
2023-04-22T03:33:27.331Z,14.18
2023-04-22T03:35:55.901Z,12.65
2023-04-22T03:38:23.538Z,12.00
2023-04-22T03:40:51.714Z,12.27
2023-04-22T03:43:19.467Z,12.20
2023-04-22T03:45:47.497Z,13.55
2023-04-22T03:48:15.151Z,12.68
2023-04-22T03:50:44.218Z,13.35
2023-04-22T03:53:12.072Z,12.50
2023-04-22T03:55:39.735Z,12.32
2023-04-22T03:58:07.349Z,13.60
2023-04-22T04:00:35.081Z,13.18
2023-04-22T04:03:02.984Z,12.20
2023-04-22T04:05:31.387Z,12.20
2023-04-22T04:08:00.859Z,11.35
2023-04-22T04:10:28.439Z,11.43
2023-04-22T04:12:56.177Z,13.88
2023-04-22T04:15:23.915Z,12.00
2023-04-22T04:17:51.712Z,11.88
2023-04-22T04:20:19.400Z,12.52
2023-04-22T04:22:47.187Z,13.55
2023-04-22T04:25:18.377Z,11.45
2023-04-22T04:27:45.990Z,11.90
2023-04-22T04:30:14.565Z,13.18
2023-04-22T04:32:43.007Z,11.45
2023-04-22T04:35:13.086Z,12.25
2023-04-22T04:37:40.848Z,12.77
2023-04-22T04:40:10.472Z,12.88
2023-04-22T04:42:39.774Z,15.35
2023-04-22T04:45:08.207Z,12.85
2023-04-22T04:47:35.958Z,12.27
2023-04-22T04:50:04.401Z,10.63
2023-04-22T04:52:32.789Z,12.95
2023-04-22T04:55:00.479Z,12.50
2023-04-22T04:57:28.128Z,12.63
2023-04-22T04:59:57.208Z,13.13
2023-04-22T05:02:25.096Z,14.70
2023-04-22T05:04:53.531Z,12.98
2023-04-22T05:07:21.343Z,11.80
2023-04-22T05:09:49.092Z,13.52
2023-04-22T05:12:17.966Z,14.50
2023-04-22T05:14:46.546Z,14.27
2023-04-22T05:17:15.596Z,14.15
2023-04-22T05:19:43.250Z,12.20
2023-04-22T05:22:11.262Z,15.27
2023-04-22T05:24:39.224Z,15.20
2023-04-22T05:27:07.960Z,14.95
2023-04-22T05:29:35.768Z,15.05
2023-04-22T05:32:03.543Z,14.32
2023-04-22T05:34:32.713Z,15.73
2023-04-22T05:37:01.078Z,16.55
2023-04-22T05:39:28.749Z,16.33
2023-04-22T05:41:56.410Z,16.45
2023-04-22T05:44:24.036Z,16.02
2023-04-22T05:46:51.918Z,16.85
2023-04-22T05:49:19.568Z,16.30
2023-04-22T05:51:48.545Z,16.10
2023-04-22T05:54:16.366Z,16.63
2023-04-22T05:56:44.016Z,16.98
2023-04-22T05:59:11.653Z,18.65
2023-04-22T06:01:39.295Z,17.83
2023-04-22T06:04:10.231Z,21.05
2023-04-22T06:06:38.385Z,18.08
2023-04-22T06:09:07.827Z,17.55
2023-04-22T06:11:35.705Z,17.25
2023-04-22T06:14:03.454Z,17.98
2023-04-22T06:16:31.269Z,18.75
2023-04-22T06:18:58.897Z,19.63
2023-04-22T06:21:26.802Z,17.75
2023-04-22T06:23:54.471Z,19.45
2023-04-22T06:26:35.173Z,21.45
2023-04-22T06:29:06.493Z,19.40
2023-04-22T06:31:34.275Z,20.13
2023-04-22T06:34:01.956Z,20.55
2023-04-22T06:36:30.713Z,20.73
2023-04-22T06:38:58.554Z,22.05
2023-04-22T06:41:27.580Z,22.30
2023-04-22T06:43:55.282Z,21.77
2023-04-22T06:46:23.088Z,24.00
2023-04-22T06:48:50.855Z,22.58
2023-04-22T06:51:18.484Z,18.00
2023-04-22T06:53:46.110Z,18.58
2023-04-22T06:56:13.980Z,19.40
2023-04-22T06:58:43.039Z,22.27
2023-04-22T07:01:10.684Z,22.55
2023-04-22T07:03:38.684Z,24.52
2023-04-22T07:06:06.834Z,22.52
2023-04-22T07:08:34.816Z,20.98
2023-04-22T07:11:02.489Z,21.77
2023-04-22T07:13:34.037Z,20.83
2023-04-22T07:16:03.736Z,21.38
2023-04-22T07:18:31.343Z,22.48
2023-04-22T07:20:59.047Z,20.25
2023-04-22T07:23:26.718Z,18.88
2023-04-22T07:25:54.638Z,22.40
2023-04-22T07:28:22.278Z,26.15
2023-04-22T07:30:50.017Z,24.63
2023-04-22T07:33:18.996Z,24.35
2023-04-22T07:35:47.351Z,24.48
2023-04-22T07:38:15.402Z,21.23
2023-04-22T07:40:43.949Z,25.92
2023-04-22T07:43:11.633Z,24.20
2023-04-22T07:45:39.324Z,24.08
2023-04-22T07:48:07.024Z,23.15
2023-04-22T07:50:38.158Z,22.98
2023-04-22T07:53:06.721Z,23.17
2023-04-22T07:55:35.465Z,22.25
2023-04-22T07:58:06.570Z,23.25
2023-04-22T08:00:34.595Z,21.90
2023-04-22T08:03:03.100Z,19.63
2023-04-22T08:05:31.216Z,20.42
2023-04-22T08:08:00.271Z,21.45
2023-04-22T08:10:28.025Z,20.10
2023-04-22T08:12:55.999Z,19.75
2023-04-22T08:15:23.764Z,21.27
2023-04-22T08:17:51.419Z,20.25
2023-04-22T08:20:19.286Z,18.80
2023-04-22T08:22:52.085Z,18.77
2023-04-22T08:25:21.338Z,20.80
2023-04-22T08:27:51.799Z,17.05
2023-04-22T08:30:19.424Z,17.38
2023-04-22T08:32:47.587Z,16.77
2023-04-22T08:35:15.373Z,15.45
2023-04-22T08:37:45.277Z,15.38
2023-04-22T08:40:13.080Z,15.00
2023-04-22T08:42:42.289Z,15.13
2023-04-22T08:45:11.024Z,15.27
2023-04-22T08:47:39.024Z,14.98
2023-04-22T08:50:07.381Z,15.82
2023-04-22T08:52:35.163Z,16.52
2023-04-22T08:55:03.794Z,16.05
2023-04-22T08:57:32.459Z,16.90
2023-04-22T09:00:01.519Z,17.83
2023-04-22T09:02:30.417Z,16.50
2023-04-22T09:04:58.708Z,17.55
2023-04-22T09:07:27.985Z,17.00
2023-04-22T09:09:56.095Z,18.25
2023-04-22T09:12:23.874Z,16.85
2023-04-22T09:14:52.130Z,18.48
2023-04-22T09:17:31.559Z,19.85
2023-04-22T09:20:00.034Z,18.15
2023-04-22T09:22:27.986Z,17.65
2023-04-22T09:24:56.528Z,17.73
2023-04-22T09:27:25.872Z,18.30
2023-04-22T09:29:53.544Z,20.50
2023-04-22T09:32:25.454Z,19.92
2023-04-22T09:34:54.016Z,19.08
2023-04-22T09:37:24.045Z,17.30
2023-04-22T09:39:52.120Z,19.10
2023-04-22T09:42:20.100Z,17.95
2023-04-22T09:44:52.626Z,15.27
2023-04-22T09:47:20.764Z,17.38
2023-04-22T09:49:49.883Z,14.02
2023-04-22T09:52:24.156Z,13.00
2023-04-22T09:54:52.909Z,13.25
2023-04-22T09:57:21.299Z,12.73
2023-04-22T09:59:51.204Z,12.30
2023-04-22T10:02:19.023Z,13.70
2023-04-22T10:04:51.876Z,13.55
2023-04-22T10:07:19.925Z,12.13
2023-04-22T10:09:49.420Z,12.88
2023-04-22T10:12:25.979Z,13.40
2023-04-22T10:14:57.260Z,15.05
2023-04-22T10:17:25.060Z,13.90
2023-04-22T10:19:56.425Z,11.68
2023-04-22T10:22:27.707Z,12.90
2023-04-22T10:24:57.922Z,12.45
2023-04-22T10:27:25.823Z,11.43
2023-04-22T10:29:53.486Z,12.18
2023-04-22T10:32:27.582Z,12.65
2023-04-22T10:35:10.113Z,12.82
2023-04-22T10:40:29.809Z,13.15
2023-04-22T10:43:03.641Z,13.77
2023-04-22T10:45:33.560Z,12.57
2023-04-22T10:48:04.255Z,14.18
2023-04-22T10:50:33.799Z,14.07
2023-04-22T10:53:03.292Z,12.68
2023-04-22T10:55:51.025Z,10.57
2023-04-22T10:58:20.050Z,9.25
2023-04-22T11:00:54.162Z,10.57
2023-04-22T11:03:26.886Z,8.40
2023-04-22T11:06:09.549Z,10.38
2023-04-22T11:08:38.584Z,11.48
2023-04-22T11:11:16.821Z,10.27
2023-04-22T11:13:45.539Z,10.80
2023-04-22T11:16:13.217Z,10.68
2023-04-22T11:18:41.014Z,11.23
2023-04-22T11:21:09.406Z,11.88
2023-04-22T11:23:38.488Z,13.15
2023-04-22T11:26:08.445Z,10.85
2023-04-22T11:28:37.351Z,9.82
2023-04-22T11:31:06.466Z,10.48
2023-04-22T11:33:35.251Z,10.75
2023-04-22T11:36:03.053Z,10.30
2023-04-22T11:38:30.918Z,10.60
2023-04-22T11:40:59.966Z,8.88
2023-04-22T11:43:27.614Z,9.82
2023-04-22T11:45:58.054Z,9.82
2023-04-22T11:48:25.846Z,10.02
2023-04-22T11:51:08.223Z,8.45
2023-04-22T11:53:35.903Z,8.35
2023-04-22T11:56:05.426Z,8.32
2023-04-22T11:58:33.054Z,7.38
2023-04-22T12:01:00.882Z,7.30
2023-04-22T12:03:29.873Z,5.30
2023-04-22T12:05:58.954Z,5.68
2023-04-22T12:08:27.221Z,5.18
2023-04-22T12:10:55.975Z,6.35
2023-04-22T12:13:26.944Z,5.75
2023-04-22T12:16:04.948Z,5.70
2023-04-22T12:18:33.453Z,6.00
2023-04-22T12:21:02.287Z,7.65
2023-04-22T12:23:29.982Z,8.48
2023-04-22T12:25:58.268Z,8.18
2023-04-22T12:28:27.309Z,9.40
2023-04-22T12:30:55.242Z,8.68
2023-04-22T12:33:22.949Z,7.40
2023-04-22T12:35:52.690Z,8.93
2023-04-22T12:38:20.904Z,8.95
2023-04-22T12:40:50.292Z,8.40
2023-04-22T12:43:18.094Z,7.20
2023-04-22T12:45:59.393Z,8.02
2023-04-22T12:48:27.101Z,7.35
2023-04-22T12:50:56.797Z,7.50
2023-04-22T12:53:25.853Z,7.07
2023-04-22T12:55:53.656Z,7.55
2023-04-22T12:58:21.314Z,7.43
2023-04-22T13:00:50.308Z,9.05
2023-04-22T13:03:18.515Z,7.90
2023-04-22T13:05:46.513Z,6.68
2023-04-22T13:08:16.888Z,6.93
2023-04-22T13:10:45.070Z,8.05
2023-04-22T13:15:43.233Z,6.95
2023-04-22T13:18:12.390Z,6.97
2023-04-22T13:20:41.704Z,6.82
2023-04-22T13:23:09.775Z,6.75
2023-04-22T13:25:37.540Z,7.22
2023-04-22T13:28:05.735Z,7.72
2023-04-22T13:30:33.974Z,6.80
2023-04-22T13:33:01.716Z,7.72
2023-04-22T13:35:31.543Z,6.38
2023-04-22T13:37:59.938Z,8.00
2023-04-22T13:40:27.756Z,7.50
2023-04-22T13:42:55.565Z,6.25
2023-04-22T13:45:23.327Z,6.47
2023-04-22T13:47:51.080Z,5.95
2023-04-22T13:50:18.785Z,6.13
2023-04-22T13:52:49.233Z,5.38
2023-04-22T13:55:17.603Z,6.00
2023-04-22T13:57:45.664Z,6.35
2023-04-22T14:00:13.771Z,7.53
2023-04-22T14:02:41.946Z,6.78
2023-04-22T14:05:10.584Z,6.55
2023-04-22T14:07:38.863Z,6.45
2023-04-22T14:10:12.223Z,7.32
2023-04-22T14:12:40.314Z,6.35
2023-04-22T14:15:10.909Z,5.93
2023-04-22T14:17:38.787Z,6.57
2023-04-22T14:20:07.370Z,7.32
2023-04-22T14:22:34.972Z,6.30
2023-04-22T14:25:02.818Z,6.95
2023-04-22T14:27:32.790Z,6.93
2023-04-22T14:30:00.425Z,7.30
2023-04-22T14:32:29.401Z,7.22
2023-04-22T14:34:57.130Z,7.43
2023-04-22T14:37:24.753Z,8.40
2023-04-22T14:39:52.422Z,8.50
2023-04-22T14:42:20.474Z,7.78
2023-04-22T14:44:49.618Z,8.90
2023-04-22T14:47:17.989Z,8.82
2023-04-22T14:49:45.726Z,9.82
2023-04-22T14:52:13.516Z,8.85
2023-04-22T14:54:41.216Z,8.27
2023-04-22T14:57:09.011Z,9.40
2023-04-22T14:59:36.829Z,8.57
2023-04-22T15:02:06.355Z,7.68
2023-04-22T15:04:34.278Z,7.97
2023-04-22T15:07:02.784Z,7.85
2023-04-22T15:09:30.382Z,8.18
2023-04-22T15:11:59.610Z,7.13
2023-04-22T15:14:27.329Z,7.68
2023-04-22T15:16:55.167Z,7.30
2023-04-22T15:19:24.163Z,7.13
2023-04-22T15:21:51.903Z,7.03
2023-04-22T15:24:21.287Z,7.47
2023-04-22T15:26:49.194Z,7.72
2023-04-22T15:29:16.908Z,7.60
2023-04-22T15:31:45.016Z,6.63
2023-04-22T15:34:12.794Z,8.20
2023-04-22T15:36:41.978Z,8.10
2023-04-22T15:39:10.699Z,7.82
2023-04-22T15:41:38.362Z,8.82
2023-04-22T15:44:07.168Z,8.48
2023-04-22T15:46:36.324Z,7.68
2023-04-22T15:49:04.458Z,7.18
2023-04-22T15:51:32.652Z,7.72
2023-04-22T15:54:01.663Z,7.43
2023-04-22T15:56:30.131Z,8.25
2023-04-22T15:58:57.884Z,7.05
2023-04-22T16:01:25.540Z,7.28
2023-04-22T16:03:54.274Z,7.10
2023-04-22T16:06:24.049Z,7.25
2023-04-22T16:08:51.712Z,8.10
2023-04-22T16:11:22.182Z,7.30
2023-04-22T16:13:50.445Z,7.55
2023-04-22T16:16:18.332Z,7.75
2023-04-22T16:18:45.969Z,8.30
2023-04-22T16:21:13.942Z,7.53
2023-04-22T16:23:41.623Z,8.35
2023-04-22T16:26:09.538Z,8.57
2023-04-22T16:28:38.560Z,8.02
2023-04-22T16:31:06.322Z,8.15
2023-04-22T16:33:34.124Z,8.32
2023-04-22T16:36:02.107Z,7.25
2023-04-22T16:38:29.721Z,8.20
2023-04-22T16:40:57.370Z,8.45
2023-04-22T16:43:25.108Z,7.75
2023-04-22T16:45:54.795Z,8.23
2023-04-22T16:48:22.970Z,8.32
2023-04-22T16:50:52.595Z,9.07
2023-04-22T16:53:20.432Z,8.40
2023-04-22T16:55:48.108Z,8.15
2023-04-22T16:58:16.213Z,8.45
2023-04-22T17:00:45.236Z,9.57
2023-04-22T17:03:47.515Z,9.75
2023-04-22T17:06:15.917Z,10.75
2023-04-22T17:08:43.559Z,9.82
2023-04-22T17:11:11.210Z,9.20
2023-04-22T17:13:38.891Z,9.57
2023-04-22T17:16:09.072Z,10.27
2023-04-22T17:18:38.613Z,9.68
2023-04-22T17:21:06.294Z,9.80
2023-04-22T17:23:33.958Z,10.43
2023-04-22T17:26:01.645Z,10.82
2023-04-22T17:28:29.367Z,9.73
2023-04-22T17:30:57.055Z,10.05
2023-04-22T17:33:26.475Z,10.38
2023-04-22T17:35:55.545Z,10.30
2023-04-22T17:38:23.339Z,10.63
2023-04-22T17:40:50.985Z,9.60
2023-04-22T17:43:18.636Z,10.25
2023-04-22T17:45:46.418Z,10.15
2023-04-22T17:48:14.225Z,11.30
2023-04-22T17:50:41.888Z,8.95
2023-04-22T17:53:10.977Z,9.63
2023-04-22T17:55:38.936Z,10.18
2023-04-22T17:58:07.326Z,8.95
2023-04-22T18:00:35.473Z,8.95
2023-04-22T18:03:03.485Z,9.30
2023-04-22T18:05:31.313Z,8.57
2023-04-22T18:08:02.579Z,9.13
2023-04-22T18:10:32.981Z,9.95
2023-04-22T18:13:00.635Z,8.15
2023-04-22T18:15:28.353Z,10.35
2023-04-22T18:17:56.399Z,10.60
2023-04-22T18:20:24.096Z,9.20
2023-04-22T18:22:52.465Z,9.57
2023-04-22T18:25:20.288Z,8.52
2023-04-22T18:27:50.633Z,9.35
2023-04-22T18:30:18.579Z,10.13
2023-04-22T18:32:47.096Z,10.25
2023-04-22T18:35:15.874Z,10.27
2023-04-22T18:37:43.524Z,8.68
2023-04-22T18:40:11.756Z,9.52
2023-04-22T18:42:39.624Z,10.07
2023-04-22T18:45:09.294Z,10.98
2023-04-22T18:47:37.104Z,10.70
2023-04-22T18:50:05.060Z,11.82
2023-04-22T18:52:33.150Z,13.55
2023-04-22T18:55:00.832Z,11.48
2023-04-22T18:57:28.577Z,13.45
2023-04-22T18:59:56.231Z,12.05
2023-04-22T19:02:25.447Z,12.10
2023-04-22T19:04:54.260Z,13.68
2023-04-22T19:07:21.933Z,13.30
2023-04-22T19:09:49.567Z,14.38
2023-04-22T19:12:19.513Z,14.07
2023-04-22T19:14:48.271Z,13.30
2023-04-22T19:17:16.044Z,12.93
2023-04-22T19:19:45.417Z,15.10
2023-04-22T19:22:13.828Z,15.68
2023-04-22T19:24:41.576Z,14.73
2023-04-22T19:27:12.450Z,15.95
2023-04-22T19:29:41.114Z,18.13
2023-04-22T19:32:11.744Z,13.20
2023-04-22T19:34:39.630Z,15.25
2023-04-22T19:37:08.681Z,17.33
2023-04-22T19:39:36.527Z,15.10
2023-04-22T19:42:04.362Z,15.98
2023-04-22T19:44:32.121Z,16.77
2023-04-22T19:47:00.225Z,15.73
2023-04-22T19:49:28.649Z,16.25
2023-04-22T19:51:57.818Z,15.18
2023-04-22T19:54:28.378Z,15.30
2023-04-22T19:56:56.374Z,16.38
2023-04-22T19:59:24.206Z,15.30
2023-04-22T20:01:52.234Z,16.38
2023-04-22T20:04:20.400Z,15.82
2023-04-22T20:06:51.392Z,18.55
2023-04-22T20:09:20.224Z,15.85
2023-04-22T20:11:51.044Z,20.55
2023-04-22T20:14:19.146Z,17.02
2023-04-22T20:16:48.050Z,18.60
2023-04-22T20:19:15.952Z,17.33
2023-04-22T20:21:44.081Z,20.88
2023-04-22T20:24:19.015Z,18.33
2023-04-22T20:26:47.285Z,17.35
2023-04-22T20:29:19.384Z,18.33
2023-04-22T20:31:47.157Z,19.00
2023-04-22T20:34:14.908Z,19.00
2023-04-22T20:36:43.658Z,16.95
2023-04-22T20:39:12.528Z,16.77
2023-04-22T20:41:40.485Z,18.02
2023-04-22T20:44:08.614Z,19.33
2023-04-22T20:46:38.881Z,16.98
2023-04-22T20:49:07.131Z,16.27
2023-04-22T20:51:35.190Z,16.23
2023-04-22T20:54:03.863Z,15.73
2023-04-22T20:56:32.568Z,17.67
2023-04-22T20:59:00.182Z,16.83
2023-04-22T21:01:30.183Z,18.25
2023-04-22T21:03:59.536Z,17.25
2023-04-22T21:06:29.051Z,18.67
2023-04-22T21:08:57.133Z,15.05
2023-04-22T21:11:25.033Z,18.45
2023-04-22T21:13:54.183Z,17.08
2023-04-22T21:16:24.463Z,18.33
2023-04-22T21:18:56.020Z,17.05
2023-04-22T21:21:28.254Z,17.85
2023-04-22T21:23:56.837Z,15.77
2023-04-22T21:26:25.198Z,16.92
2023-04-22T21:28:53.872Z,17.30
2023-04-22T21:31:23.348Z,16.88
2023-04-22T21:33:52.270Z,17.17
2023-04-22T21:36:22.478Z,16.02
2023-04-22T21:38:51.503Z,16.58
2023-04-22T21:41:19.317Z,17.27
2023-04-22T21:43:46.998Z,17.40
2023-04-22T21:46:14.675Z,18.35
2023-04-22T21:48:42.382Z,16.08
2023-04-22T21:51:10.044Z,16.23
2023-04-22T21:53:37.638Z,15.63
2023-04-22T21:56:06.947Z,17.42
2023-04-22T21:58:34.629Z,16.33
2023-04-22T22:01:02.683Z,16.83
2023-04-22T22:03:32.182Z,16.33
2023-04-22T22:05:59.936Z,16.23
2023-04-22T22:08:34.683Z,17.67
2023-04-22T22:11:03.909Z,15.48
2023-04-22T22:13:33.551Z,18.25
2023-04-22T22:16:01.973Z,17.55
2023-04-22T22:18:29.657Z,17.50
2023-04-22T22:20:57.452Z,17.73
2023-04-22T22:23:26.298Z,17.73
2023-04-22T22:25:54.032Z,18.65
2023-04-22T22:28:21.675Z,17.92
2023-04-22T22:30:50.702Z,19.25
2023-04-22T22:33:18.601Z,19.73
2023-04-22T22:35:46.313Z,23.98
2023-04-22T22:38:13.969Z,20.42
2023-04-22T22:40:41.688Z,22.77
2023-04-22T22:43:09.363Z,24.52
2023-04-22T22:45:36.994Z,21.80
2023-04-22T22:48:06.530Z,19.65
2023-04-22T22:50:34.325Z,20.02
2023-04-22T22:53:02.667Z,18.58
2023-04-22T22:55:30.361Z,18.45
2023-04-22T22:57:58.224Z,17.65
2023-04-22T23:00:25.865Z,17.45
2023-04-22T23:02:54.202Z,17.45
2023-04-22T23:05:23.632Z,16.80
2023-04-22T23:07:51.365Z,16.60
2023-04-22T23:10:19.020Z,17.58
2023-04-22T23:12:47.841Z,16.88
2023-04-22T23:15:15.489Z,16.67
2023-04-22T23:17:43.176Z,15.55
2023-04-22T23:20:11.681Z,15.55
2023-04-22T23:22:40.986Z,15.73
2023-04-22T23:25:09.652Z,16.40
2023-04-22T23:27:42.771Z,15.75
2023-04-22T23:30:10.890Z,16.00
2023-04-22T23:32:40.331Z,15.85
2023-04-22T23:35:09.163Z,14.98
2023-04-22T23:37:39.092Z,16.77
2023-04-22T23:40:09.797Z,14.27
2023-04-22T23:42:37.466Z,13.88
2023-04-22T23:45:05.550Z,17.63
2023-04-22T23:47:37.979Z,16.73
2023-04-22T23:50:06.020Z,15.85
2023-04-22T23:52:37.459Z,16.55
2023-04-22T23:55:05.892Z,14.23
2023-04-22T23:57:35.438Z,14.80
